Time;durP1;ratioP1;P1;durP2;ratioP2;P2;SDS_P1;SDS_P2;PMS_P1;PMS_P2;Temp;Humidity;BMP_temperature;BMP_pressure;BME280_temperature;BME280_humidity;BME280_pressure;Samples;Min_cycle;Max_cycle;Signal;HPM_P1;HPM_P2
2022/09/13 00:01:09;;;;;;;10.80;5.32;;;;;;;;;;5032910;28;20076;-50
2022/09/13 00:03:38;;;;;;;6.28;3.92;;;;;;;;;;5046895;28;20369;-50
2022/09/13 00:06:14;;;;;;;7.13;4.60;;;;;;;;;;5052561;28;20075;-52
2022/09/13 00:08:45;;;;;;;11.00;5.40;;;;;;;;;;5052816;28;20049;-51
2022/09/13 00:11:22;;;;;;;6.88;4.00;;;;;;;;;;5052539;28;20465;-53
2022/09/13 00:13:51;;;;;;;6.68;3.90;;;;;;;;;;5052331;28;20473;-50
2022/09/13 00:16:23;;;;;;;9.02;4.40;;;;;;;;;;5052303;28;20126;-54
2022/09/13 00:18:53;;;;;;;8.73;4.85;;;;;;;;;;5052841;28;20114;-53
2022/09/13 00:21:35;;;;;;;9.07;4.40;;;;;;;;;;5052793;28;20053;-54
2022/09/13 00:24:05;;;;;;;6.88;3.78;;;;;;;;;;5056099;28;20401;-53
2022/09/13 00:26:35;;;;;;;7.38;3.60;;;;;;;;;;5055703;28;20445;-53
2022/09/13 00:29:02;;;;;;;7.60;4.10;;;;;;;;;;5056503;28;20080;-51
2022/09/13 00:31:32;;;;;;;6.78;3.95;;;;;;;;;;5055896;28;20053;-52
2022/09/13 00:34:02;;;;;;;8.63;4.65;;;;;;;;;;5055933;28;20434;-52
2022/09/13 00:36:33;;;;;;;8.23;3.75;;;;;;;;;;5056481;28;20048;-51
2022/09/13 00:39:03;;;;;;;6.45;4.35;;;;;;;;;;5056210;28;20045;-52
2022/09/13 00:41:32;;;;;;;8.68;3.90;;;;;;;;;;5056101;28;20611;-51
2022/09/13 00:44:03;;;;;;;7.28;4.07;;;;;;;;;;5055646;28;20052;-52
2022/09/13 00:46:34;;;;;;;6.70;3.72;;;;;;;;;;5055696;28;20128;-53
2022/09/13 00:49:11;;;;;;;5.30;3.10;;;;;;;;;;5055733;28;20063;-50
2022/09/13 00:51:55;;;;;;;5.25;2.97;;;;;;;;;;5064881;28;20536;-53
2022/09/13 00:54:29;;;;;;;5.82;3.60;;;;;;;;;;5056036;28;20063;-51
2022/09/13 00:57:00;;;;;;;7.03;3.40;;;;;;;;;;5055782;28;20046;-54
2022/09/13 00:59:28;;;;;;;5.50;3.75;;;;;;;;;;5043912;28;20085;-54
2022/09/13 01:01:58;;;;;;;6.05;3.47;;;;;;;;;;5036144;28;20057;-50
2022/09/13 01:04:27;;;;;;;6.15;3.38;;;;;;;;;;5055907;28;20056;-51
2022/09/13 01:07:13;;;;;;;5.65;3.70;;;;;;;;;;5055479;28;20048;-51
2022/09/13 01:09:47;;;;;;;5.00;2.67;;;;;;;;;;5055320;28;20358;-53
2022/09/13 01:12:18;;;;;;;5.88;3.00;;;;;;;;;;5055576;28;20084;-53
2022/09/13 01:14:46;;;;;;;6.18;2.97;;;;;;;;;;5055288;28;20060;-51
2022/09/13 01:17:15;;;;;;;6.03;2.50;;;;;;;;;;5055574;28;20053;-53
2022/09/13 01:19:45;;;;;;;5.20;2.30;;;;;;;;;;5049626;28;20068;-52
2022/09/13 01:22:28;;;;;;;7.30;2.60;;;;;;;;;;5047454;28;20053;-53
2022/09/13 01:25:18;;;;;;;4.63;2.60;;;;;;;;;;5055222;28;20073;-50
2022/09/13 01:27:56;;;;;;;4.32;1.90;;;;;;;;;;5022860;28;20574;-50
2022/09/13 01:30:33;;;;;;;3.88;1.90;;;;;;;;;;5055127;28;20057;-51
2022/09/13 01:33:16;;;;;;;4.63;2.20;;;;;;;;;;5054621;28;20060;-49
2022/09/13 01:35:52;;;;;;;4.40;2.00;;;;;;;;;;5052788;28;20056;-53
2022/09/13 01:38:18;;;;;;;;;;;;;;;;;;5055707;28;20127;-51
2022/09/13 01:40:53;;;;;;;4.03;1.90;;;;;;;;;;5043808;28;19940;-53
2022/09/13 01:43:29;;;;;;;5.33;2.17;;;;;;;;;;5035096;28;20045;-51
2022/09/13 01:46:04;;;;;;;3.22;1.75;;;;;;;;;;5034312;28;20053;-51
2022/09/13 01:48:36;;;;;;;5.15;2.10;;;;;;;;;;5035260;28;20077;-52
2022/09/13 01:51:13;;;;;;;3.95;1.80;;;;;;;;;;5042380;28;20056;-50
2022/09/13 01:53:46;;;;;;;3.47;1.85;;;;;;;;;;5054750;28;20057;-52
2022/09/13 01:56:28;;;;;;;2.95;1.50;;;;;;;;;;5054825;28;20056;-51
2022/09/13 01:59:06;;;;;;;3.38;1.70;;;;;;;;;;5047298;28;20136;-49
2022/09/13 02:01:40;;;;;;;2.72;1.52;;;;;;;;;;5034258;28;20386;-53
2022/09/13 02:04:12;;;;;;;3.10;1.60;;;;;;;;;;5053075;28;20127;-53
2022/09/13 02:06:42;;;;;;;3.72;1.88;;;;;;;;;;5054486;28;20048;-51
2022/09/13 02:09:18;;;;;;;4.97;1.83;;;;;;;;;;5054530;28;20052;-52
2022/09/13 02:11:51;;;;;;;3.63;1.52;;;;;;;;;;5054513;28;20052;-50
2022/09/13 02:14:20;;;;;;;3.85;1.73;;;;;;;;;;5054538;28;20053;-50
2022/09/13 02:17:01;;;;;;;3.55;1.35;;;;;;;;;;5053629;28;20049;-50
2022/09/13 02:19:34;;;;;;;2.42;1.27;;;;;;;;;;5038027;28;20048;-51
2022/09/13 02:22:10;;;;;;;3.60;1.48;;;;;;;;;;5054342;28;20057;-50
2022/09/13 02:24:39;;;;;;;3.33;1.75;;;;;;;;;;5054069;28;20437;-50
2022/09/13 02:27:09;;;;;;;1.88;1.25;;;;;;;;;;5054235;28;20053;-50
2022/09/13 02:29:46;;;;;;;2.75;1.58;;;;;;;;;;5053928;28;20053;-50
2022/09/13 02:32:17;;;;;;;2.25;1.20;;;;;;;;;;5054004;28;20053;-50
2022/09/13 02:34:45;;;;;;;2.90;1.30;;;;;;;;;;5053974;28;20057;-50
2022/09/13 02:37:16;;;;;;;1.63;1.15;;;;;;;;;;5053900;28;20136;-52
2022/09/13 02:39:48;;;;;;;2.78;1.60;;;;;;;;;;5053991;28;20083;-50
2022/09/13 02:42:20;;;;;;;3.63;1.45;;;;;;;;;;5053901;28;20053;-50
2022/09/13 02:44:58;;;;;;;2.38;1.50;;;;;;;;;;5052631;28;20465;-52
2022/09/13 02:47:52;;;;;;;2.22;1.40;;;;;;;;;;5053701;28;20063;-51
2022/09/13 02:50:32;;;;;;;3.95;1.67;;;;;;;;;;5053442;28;20052;-50
2022/09/13 02:53:03;;;;;;;2.30;1.40;;;;;;;;;;5033609;28;20111;-53
2022/09/13 02:55:39;;;;;;;2.38;1.48;;;;;;;;;;5033517;28;20049;-52
2022/09/13 02:58:13;;;;;;;3.40;1.95;;;;;;;;;;5034225;28;20144;-50
2022/09/13 03:00:45;;;;;;;3.05;1.80;;;;;;;;;;5051702;28;20505;-53
2022/09/13 03:03:23;;;;;;;3.50;2.35;;;;;;;;;;5044471;28;20064;-52
2022/09/13 03:05:52;;;;;;;3.20;1.90;;;;;;;;;;5053329;28;20049;-53
2022/09/13 03:08:22;;;;;;;5.88;2.35;;;;;;;;;;5053456;28;20049;-50
2022/09/13 03:10:59;;;;;;;3.88;2.00;;;;;;;;;;5053343;28;20063;-50
2022/09/13 03:13:34;;;;;;;4.88;2.33;;;;;;;;;;5053022;28;20092;-52
2022/09/13 03:16:08;;;;;;;5.30;2.72;;;;;;;;;;5052926;28;20060;-51
2022/09/13 03:18:47;;;;;;;4.57;2.38;;;;;;;;;;5053049;28;20470;-52
2022/09/13 03:21:29;;;;;;;5.53;3.10;;;;;;;;;;5038150;28;20068;-50
2022/09/13 03:24:05;;;;;;;4.53;2.20;;;;;;;;;;5050432;28;20057;-49
2022/09/13 03:26:45;;;;;;;4.32;2.53;;;;;;;;;;5053007;28;20048;-51
2022/09/13 03:29:22;;;;;;;5.65;2.42;;;;;;;;;;5052883;28;20068;-49
2022/09/13 03:31:50;;;;;;;4.68;2.40;;;;;;;;;;5053112;28;20133;-51
2022/09/13 03:34:33;;;;;;;3.50;2.33;;;;;;;;;;5052976;28;20064;-51
2022/09/13 03:37:04;;;;;;;4.43;2.80;;;;;;;;;;5053050;28;20085;-50
2022/09/13 03:39:36;;;;;;;4.68;2.55;;;;;;;;;;5053165;28;20055;-52
2022/09/13 03:42:14;;;;;;;6.45;3.22;;;;;;;;;;5053127;28;20052;-50
2022/09/13 03:44:44;;;;;;;5.70;2.53;;;;;;;;;;5053242;28;20085;-52
2022/09/13 03:47:13;;;;;;;4.38;2.60;;;;;;;;;;5053070;28;20156;-53
2022/09/13 03:49:50;;;;;;;4.40;2.65;;;;;;;;;;5052874;28;20049;-49
2022/09/13 03:52:26;;;;;;;5.45;2.60;;;;;;;;;;5064774;28;20110;-50
2022/09/13 03:54:54;;;;;;;5.78;3.42;;;;;;;;;;5053008;28;20068;-50
2022/09/13 03:57:22;;;;;;;5.45;2.83;;;;;;;;;;5055924;28;20072;-49
2022/09/13 03:59:51;;;;;;;4.40;2.60;;;;;;;;;;5041836;28;20127;-52
2022/09/13 04:02:18;;;;;;;5.93;2.55;;;;;;;;;;5040068;28;20051;-52
2022/09/13 04:04:49;;;;;;;5.07;2.90;;;;;;;;;;5055853;28;20060;-50
2022/09/13 04:07:19;;;;;;;4.20;2.63;;;;;;;;;;5056634;28;20052;-52
2022/09/13 04:09:49;;;;;;;6.50;2.60;;;;;;;;;;5056366;28;20049;-49
2022/09/13 04:12:19;;;;;;;7.55;2.60;;;;;;;;;;5056662;28;20049;-53
2022/09/13 04:14:49;;;;;;;4.47;2.75;;;;;;;;;;5056511;28;20045;-52
2022/09/13 04:17:19;;;;;;;5.25;2.30;;;;;;;;;;5056527;28;20049;-51
2022/09/13 04:19:52;;;;;;;5.75;2.65;;;;;;;;;;5056668;28;20057;-49
2022/09/13 04:22:20;;;;;;;6.65;2.78;;;;;;;;;;5056245;28;20366;-49
2022/09/13 04:24:51;;;;;;;6.53;2.85;;;;;;;;;;5056365;28;20183;-53
2022/09/13 04:27:19;;;;;;;3.65;2.60;;;;;;;;;;5056125;28;20049;-51
2022/09/13 04:29:49;;;;;;;6.97;2.72;;;;;;;;;;5056332;28;20056;-54
2022/09/13 04:32:19;;;;;;;6.68;2.60;;;;;;;;;;5056119;28;20053;-51
2022/09/13 04:34:52;;;;;;;4.97;2.90;;;;;;;;;;5056190;28;20103;-51
2022/09/13 04:37:19;;;;;;;3.97;2.22;;;;;;;;;;5055643;28;20075;-51
2022/09/13 04:39:48;;;;;;;6.03;3.03;;;;;;;;;;5056319;28;20067;-54
2022/09/13 04:42:15;;;;;;;5.28;2.42;;;;;;;;;;5056039;28;20189;-52
2022/09/13 04:44:43;;;;;;;5.15;2.40;;;;;;;;;;5056235;28;20048;-54
2022/09/13 04:47:10;;;;;;;3.58;2.30;;;;;;;;;;5055800;28;20113;-52
2022/09/13 04:49:38;;;;;;;5.43;2.45;;;;;;;;;;5055877;28;20049;-52
2022/09/13 04:52:11;;;;;;;4.95;2.63;;;;;;;;;;5067600;28;20059;-51
2022/09/13 04:54:42;;;;;;;6.55;2.75;;;;;;;;;;5055487;28;20524;-51
2022/09/13 04:57:08;;;;;;;7.07;2.67;;;;;;;;;;5055850;28;20504;-52
2022/09/13 04:59:37;;;;;;;6.20;2.70;;;;;;;;;;5043482;28;20049;-54
2022/09/13 05:02:03;;;;;;;8.73;3.55;;;;;;;;;;5055657;28;20110;-52
2022/09/13 05:04:33;;;;;;;7.88;3.40;;;;;;;;;;5055213;28;20474;-50
2022/09/13 05:07:01;;;;;;;8.45;3.45;;;;;;;;;;5054740;28;20045;-51
2022/09/13 05:09:34;;;;;;;7.50;3.58;;;;;;;;;;5055263;28;20052;-51
2022/09/13 05:12:13;;;;;;;10.98;2.95;;;;;;;;;;5055676;28;20056;-50
2022/09/13 05:14:43;;;;;;;8.23;4.10;;;;;;;;;;5055166;28;20110;-51
2022/09/13 05:17:13;;;;;;;14.23;3.65;;;;;;;;;;5055422;28;20127;-51
2022/09/13 05:19:43;;;;;;;10.57;4.53;;;;;;;;;;5055296;28;20100;-51
2022/09/13 05:22:13;;;;;;;11.07;3.58;;;;;;;;;;5054811;28;20575;-50
2022/09/13 05:24:46;;;;;;;10.35;4.07;;;;;;;;;;5055188;28;20053;-51
2022/09/13 05:27:16;;;;;;;6.90;3.55;;;;;;;;;;5055308;28;20072;-51
2022/09/13 05:29:45;;;;;;;7.47;3.05;;;;;;;;;;5055238;28;20139;-51
2022/09/13 05:32:11;;;;;;;7.80;2.70;;;;;;;;;;5052757;28;20110;-48
2022/09/13 05:34:47;;;;;;;11.43;2.65;;;;;;;;;;5034883;28;20497;-50
2022/09/13 05:37:17;;;;;;;8.55;2.70;;;;;;;;;;5035117;28;20148;-50
2022/09/13 05:39:49;;;;;;;5.55;2.35;;;;;;;;;;5035132;28;20050;-51
2022/09/13 05:42:15;;;;;;;6.28;2.40;;;;;;;;;;5035122;28;20104;-52
2022/09/13 05:44:45;;;;;;;6.80;2.20;;;;;;;;;;5034034;28;20057;-53
2022/09/13 05:47:13;;;;;;;4.13;2.10;;;;;;;;;;5036908;28;20439;-50
2022/09/13 05:49:43;;;;;;;4.97;2.30;;;;;;;;;;5054612;28;20056;-53
2022/09/13 05:52:14;;;;;;;9.70;2.13;;;;;;;;;;5056576;28;20190;-51
2022/09/13 05:54:40;;;;;;;3.45;2.15;;;;;;;;;;5034946;28;20050;-50
2022/09/13 05:57:07;;;;;;;4.70;2.50;;;;;;;;;;5034663;28;20236;-52
2022/09/13 05:59:35;;;;;;;4.57;2.45;;;;;;;;;;5047307;28;20136;-52
2022/09/13 06:02:03;;;;;;;3.95;1.98;;;;;;;;;;5039233;28;20091;-50
2022/09/13 06:04:33;;;;;;;6.72;2.78;;;;;;;;;;5038369;28;20084;-50
2022/09/13 06:07:02;;;;;;;5.93;2.72;;;;;;;;;;5042006;28;20454;-52
2022/09/13 06:09:30;;;;;;;10.93;3.50;;;;;;;;;;5038832;28;20057;-53
2022/09/13 06:12:00;;;;;;;8.15;2.50;;;;;;;;;;5038323;28;20056;-53
2022/09/13 06:14:36;;;;;;;5.03;2.30;;;;;;;;;;5050163;28;20359;-55
2022/09/13 06:17:04;;;;;;;5.28;2.28;;;;;;;;;;5033705;28;20049;-54
2022/09/13 06:19:34;;;;;;;10.48;2.28;;;;;;;;;;5044628;28;20052;-55
2022/09/13 06:22:01;;;;;;;7.47;2.67;;;;;;;;;;5053435;28;20052;-53
2022/09/13 06:24:30;;;;;;;7.47;2.95;;;;;;;;;;5053947;28;20048;-55
2022/09/13 06:26:57;;;;;;;6.40;2.35;;;;;;;;;;5033904;28;20052;-52
2022/09/13 06:29:26;;;;;;;5.30;2.50;;;;;;;;;;5043626;28;20489;-50
2022/09/13 06:31:55;;;;;;;7.65;2.72;;;;;;;;;;5034972;28;20057;-50
2022/09/13 06:34:24;;;;;;;6.85;2.85;;;;;;;;;;5033634;28;20064;-50
2022/09/13 06:36:52;;;;;;;8.30;2.80;;;;;;;;;;5049998;28;20049;-53
2022/09/13 06:39:23;;;;;;;7.65;2.42;;;;;;;;;;5040429;28;20037;-51
2022/09/13 06:41:51;;;;;;;4.10;1.95;;;;;;;;;;5044847;28;20057;-51
2022/09/13 06:44:22;;;;;;;5.70;2.40;;;;;;;;;;5032441;28;20057;-51
2022/09/13 06:46:51;;;;;;;4.30;2.33;;;;;;;;;;5050130;28;20076;-52
2022/09/13 06:49:21;;;;;;;5.68;2.00;;;;;;;;;;5040237;28;20144;-55
2022/09/13 06:54:32;;;;;;;6.95;1.92;;;;;;;;;;5049442;28;20053;-51
2022/09/13 06:56:58;;;;;;;6.10;2.17;;;;;;;;;;5037390;28;20109;-54
2022/09/13 06:59:24;;;;;;;4.80;1.90;;;;;;;;;;5049227;28;20369;-55
2022/09/13 07:01:53;;;;;;;13.25;2.28;;;;;;;;;;5041827;28;20064;-50
2022/09/13 07:04:22;;;;;;;4.15;2.17;;;;;;;;;;5032754;28;20053;-51
2022/09/13 07:06:53;;;;;;;5.88;2.30;;;;;;;;;;5033826;28;20053;-49
2022/09/13 07:09:21;;;;;;;4.10;2.00;;;;;;;;;;5044636;28;20045;-51
2022/09/13 07:11:53;;;;;;;4.82;2.30;;;;;;;;;;5043055;28;20052;-51
2022/09/13 07:14:24;;;;;;;5.75;2.08;;;;;;;;;;5037320;28;20056;-51
2022/09/13 07:16:52;;;;;;;5.38;2.58;;;;;;;;;;5048902;28;20085;-52
2022/09/13 07:19:30;;;;;;;8.30;2.50;;;;;;;;;;5032620;28;20457;-50
2022/09/13 07:22:13;;;;;;;4.32;2.20;;;;;;;;;;5036199;28;20052;-49
2022/09/13 07:24:39;;;;;;;5.65;2.80;;;;;;;;;;5049182;28;20053;-50
2022/09/13 07:27:08;;;;;;;5.45;2.53;;;;;;;;;;5049136;28;20049;-53
2022/09/13 07:29:37;;;;;;;5.00;2.60;;;;;;;;;;5049933;28;20049;-53
2022/09/13 07:32:07;;;;;;;6.35;2.50;;;;;;;;;;5039110;28;20484;-53
2022/09/13 07:34:37;;;;;;;12.15;2.85;;;;;;;;;;5048936;28;20547;-53
2022/09/13 07:37:06;;;;;;;8.75;2.70;;;;;;;;;;5037519;28;20402;-53
2022/09/13 07:39:36;;;;;;;6.70;2.63;;;;;;;;;;5042628;28;20056;-52
2022/09/13 07:42:03;;;;;;;7.30;2.40;;;;;;;;;;5044172;28;20514;-54
2022/09/13 07:44:33;;;;;;;6.43;2.17;;;;;;;;;;5045461;28;20056;-50
2022/09/13 07:47:03;;;;;;;5.88;2.40;;;;;;;;;;5048614;28;20128;-49
2022/09/13 07:49:32;;;;;;;4.93;2.60;;;;;;;;;;5041298;28;20052;-49
2022/09/13 07:52:00;;;;;;;5.90;3.03;;;;;;;;;;5052355;28;20053;-50
2022/09/13 07:54:33;;;;;;;9.00;2.90;;;;;;;;;;5045058;28;20057;-50
2022/09/13 07:57:02;;;;;;;4.68;2.60;;;;;;;;;;5019682;28;20124;-50
2022/09/13 07:59:30;;;;;;;4.80;2.85;;;;;;;;;;5033479;28;20060;-50
2022/09/13 08:02:01;;;;;;;6.78;2.97;;;;;;;;;;5043518;28;20072;-50
2022/09/13 08:04:31;;;;;;;5.80;3.10;;;;;;;;;;5048249;28;20122;-50
2022/09/13 08:06:59;;;;;;;5.50;3.35;;;;;;;;;;5036474;28;20439;-50
2022/09/13 08:09:25;;;;;;;6.93;2.95;;;;;;;;;;5044666;28;20050;-55
2022/09/13 08:12:06;;;;;;;6.65;3.13;;;;;;;;;;5031716;28;20080;-51
2022/09/13 08:14:41;;;;;;;4.50;2.92;;;;;;;;;;5035932;28;20045;-50
2022/09/13 08:17:12;;;;;;;9.98;3.70;;;;;;;;;;5033925;28;20351;-53
2022/09/13 08:19:40;;;;;;;8.15;4.32;;;;;;;;;;5032663;28;20068;-53
2022/09/13 08:22:15;;;;;;;8.70;4.10;;;;;;;;;;5030185;28;20053;-55
2022/09/13 08:24:43;;;;;;;9.95;3.67;;;;;;;;;;5034853;28;20045;-56
2022/09/13 08:27:19;;;;;;;11.02;4.50;;;;;;;;;;5037594;28;20053;-51
2022/09/13 08:29:46;;;;;;;11.13;3.90;;;;;;;;;;5042710;28;20048;-51
2022/09/13 08:32:13;;;;;;;7.70;4.30;;;;;;;;;;5034264;28;20052;-50
2022/09/13 08:34:41;;;;;;;8.00;4.28;;;;;;;;;;5046657;28;20135;-50
2022/09/13 08:37:07;;;;;;;8.50;3.97;;;;;;;;;;5037535;28;20068;-54
2022/09/13 08:39:37;;;;;;;9.23;4.03;;;;;;;;;;5042902;28;20055;-52
2022/09/13 08:42:11;;;;;;;6.25;3.38;;;;;;;;;;5045148;28;20156;-51
2022/09/13 08:44:45;;;;;;;7.93;4.25;;;;;;;;;;5033320;28;20057;-50
2022/09/13 08:47:23;;;;;;;6.50;4.23;;;;;;;;;;5038799;28;20452;-52
2022/09/13 08:49:55;;;;;;;6.28;4.45;;;;;;;;;;5037807;28;20106;-51
2022/09/13 08:52:31;;;;;;;9.32;5.00;;;;;;;;;;5044599;28;20049;-51
2022/09/13 08:55:02;;;;;;;6.65;4.20;;;;;;;;;;5023496;28;20080;-50
2022/09/13 08:57:32;;;;;;;6.78;4.38;;;;;;;;;;5047382;28;20144;-50
2022/09/13 09:00:05;;;;;;;6.55;4.03;;;;;;;;;;5034539;28;20470;-52
2022/09/13 09:02:42;;;;;;;6.53;4.13;;;;;;;;;;5037701;28;20057;-54
2022/09/13 09:05:16;;;;;;;8.95;4.82;;;;;;;;;;5025412;28;20061;-51
2022/09/13 09:07:46;;;;;;;7.55;4.40;;;;;;;;;;5045062;28;20053;-52
2022/09/13 09:10:18;;;;;;;8.43;4.55;;;;;;;;;;5036392;28;20068;-54
2022/09/13 09:12:46;;;;;;;5.80;4.30;;;;;;;;;;5051405;28;20445;-51
2022/09/13 09:15:23;;;;;;;6.78;4.07;;;;;;;;;;5040258;28;20056;-54
2022/09/13 09:17:56;;;;;;;9.73;4.32;;;;;;;;;;5046161;28;20132;-49
2022/09/13 09:20:38;;;;;;;8.25;4.60;;;;;;;;;;5039317;28;20061;-52
2022/09/13 09:23:15;;;;;;;6.68;4.50;;;;;;;;;;5030303;28;20120;-54
2022/09/13 09:25:43;;;;;;;6.28;4.05;;;;;;;;;;5046621;28;20053;-48
2022/09/13 09:28:20;;;;;;;7.20;4.40;;;;;;;;;;5048710;28;20049;-49
2022/09/13 09:31:04;;;;;;;7.10;4.30;;;;;;;;;;5037806;28;20057;-50
2022/09/13 09:33:38;;;;;;;9.60;4.82;;;;;;;;;;5046323;28;20045;-53
2022/09/13 09:36:08;;;;;;;9.27;3.83;;;;;;;;;;5037310;28;20056;-54
2022/09/13 09:38:42;;;;;;;7.05;4.53;;;;;;;;;;5051217;28;20053;-54
2022/09/13 09:41:24;;;;;;;9.25;4.80;;;;;;;;;;5029110;28;20466;-54
2022/09/13 09:43:59;;;;;;;10.38;4.60;;;;;;;;;;5045691;28;20128;-52
2022/09/13 09:46:33;;;;;;;7.82;4.75;;;;;;;;;;5037945;28;20049;-53
2022/09/13 09:50:07;;;;;;;8.20;5.05;;;;;;;;;;5034714;28;20156;-50
2022/09/13 09:51:56;;;;;;;11.27;5.90;;;;;;;;;;5053637;28;20055;-50
2022/09/13 09:54:27;;;;;;;7.63;4.90;;;;;;;;;;5049503;28;20053;-50
2022/09/13 09:56:56;;;;;;;8.50;5.15;;;;;;;;;;5021724;28;20129;-50
2022/09/13 09:59:36;;;;;;;9.70;5.38;;;;;;;;;;5050106;28;20477;-53
2022/09/13 10:02:26;;;;;;;11.52;5.22;;;;;;;;;;5041237;28;20045;-50
2022/09/13 10:05:03;;;;;;;8.90;5.65;;;;;;;;;;5037281;28;20060;-50
2022/09/13 10:07:34;;;;;;;11.32;6.30;;;;;;;;;;5037122;28;20365;-50
2022/09/13 10:10:04;;;;;;;11.35;5.28;;;;;;;;;;5034092;28;20136;-50
2022/09/13 10:12:36;;;;;;;10.15;6.45;;;;;;;;;;5050350;28;20053;-51
2022/09/13 10:15:06;;;;;;;9.60;5.93;;;;;;;;;;5038094;28;20060;-51
2022/09/13 10:17:34;;;;;;;7.45;5.35;;;;;;;;;;5039435;28;20562;-51
2022/09/13 10:20:25;;;;;;;8.50;5.15;;;;;;;;;;5033688;28;20053;-51
2022/09/13 10:23:27;;;;;;;7.15;4.88;;;;;;;;;;5045746;28;20102;-50
2022/09/13 10:26:15;;;;;;;7.93;5.10;;;;;;;;;;4982272;28;20058;-50
2022/09/13 10:28:45;;;;;;;12.07;5.75;;;;;;;;;;4974083;28;20083;-51
2022/09/13 10:31:15;;;;;;;11.63;5.78;;;;;;;;;;4979302;28;20050;-52
2022/09/13 10:34:00;;;;;;;9.10;5.88;;;;;;;;;;4982873;28;20656;-51
2022/09/13 10:36:36;;;;;;;8.57;5.57;;;;;;;;;;4978682;28;20609;-50
2022/09/13 10:39:07;;;;;;;9.73;5.80;;;;;;;;;;5035144;28;20056;-51
2022/09/13 10:41:44;;;;;;;10.57;6.22;;;;;;;;;;5034895;28;20045;-51
2022/09/13 10:44:34;;;;;;;8.60;5.30;;;;;;;;;;5034884;28;20171;-54
2022/09/13 10:47:06;;;;;;;12.23;6.60;;;;;;;;;;5046712;28;20468;-53
2022/09/13 10:49:46;;;;;;;8.27;5.53;;;;;;;;;;5038233;28;20049;-55
2022/09/13 10:52:35;;;;;;;10.35;5.57;;;;;;;;;;5046390;28;20044;-53
2022/09/13 10:55:30;;;;;;;9.82;6.40;;;;;;;;;;5022270;28;20056;-50
2022/09/13 10:58:15;;;;;;;14.35;6.25;;;;;;;;;;4970493;28;20061;-50
2022/09/13 11:00:46;;;;;;;8.15;5.82;;;;;;;;;;5044998;28;20115;-50
2022/09/13 11:03:25;;;;;;;11.05;6.30;;;;;;;;;;5034138;28;20052;-51
2022/09/13 11:06:02;;;;;;;8.45;6.05;;;;;;;;;;5031381;28;20053;-52
2022/09/13 11:08:47;;;;;;;9.73;6.07;;;;;;;;;;5037187;28;20391;-50
2022/09/13 11:11:28;;;;;;;9.18;5.72;;;;;;;;;;5025545;28;20052;-50
2022/09/13 11:14:08;;;;;;;7.85;5.80;;;;;;;;;;5028495;28;20057;-51
2022/09/13 11:16:55;;;;;;;9.38;5.90;;;;;;;;;;5045966;28;20065;-51
2022/09/13 11:19:42;;;;;;;8.65;5.63;;;;;;;;;;5029978;28;20140;-55
2022/09/13 11:22:19;;;;;;;9.02;5.25;;;;;;;;;;5009952;28;20049;-50
2022/09/13 11:24:55;;;;;;;7.85;5.50;;;;;;;;;;5033351;28;20433;-52
2022/09/13 11:27:27;;;;;;;9.15;5.20;;;;;;;;;;5034994;28;20049;-49
2022/09/13 11:30:03;;;;;;;15.27;5.38;;;;;;;;;;5040864;28;20710;-56
2022/09/13 11:32:36;;;;;;;8.52;4.68;;;;;;;;;;5023709;28;20081;-51
2022/09/13 11:35:12;;;;;;;7.13;4.28;;;;;;;;;;5022490;28;20046;-52
2022/09/13 11:37:47;;;;;;;7.25;5.15;;;;;;;;;;5027818;28;20045;-53
2022/09/13 11:40:38;;;;;;;8.48;5.28;;;;;;;;;;5033308;28;20132;-52
2022/09/13 11:43:20;;;;;;;8.05;4.28;;;;;;;;;;5020657;28;20056;-52
2022/09/13 11:45:54;;;;;;;6.05;4.18;;;;;;;;;;5048044;28;20053;-51
2022/09/13 11:48:32;;;;;;;6.65;4.43;;;;;;;;;;5036376;28;20061;-50
2022/09/13 11:51:05;;;;;;;7.88;4.45;;;;;;;;;;5027247;28;20053;-51
2022/09/13 11:53:53;;;;;;;7.38;4.88;;;;;;;;;;5032932;28;20575;-53
2022/09/13 11:56:37;;;;;;;7.05;4.95;;;;;;;;;;5030240;28;20056;-54
2022/09/13 11:59:13;;;;;;;6.72;4.10;;;;;;;;;;5034897;28;20528;-50
2022/09/13 12:01:44;;;;;;;6.72;4.18;;;;;;;;;;5043202;28;20072;-51
2022/09/13 12:04:16;;;;;;;8.05;4.88;;;;;;;;;;5038637;28;20061;-56
2022/09/13 12:06:45;;;;;;;6.32;4.10;;;;;;;;;;5040285;28;20060;-50
2022/09/13 12:12:06;;;;;;;7.00;4.50;;;;;;;;;;5032384;28;20063;-51
2022/09/13 12:14:40;;;;;;;9.07;4.82;;;;;;;;;;5031925;28;20064;-53
2022/09/13 12:17:13;;;;;;;7.38;4.75;;;;;;;;;;5048162;28;20057;-52
2022/09/13 12:19:42;;;;;;;7.38;4.68;;;;;;;;;;5045500;28;20049;-51
2022/09/13 12:22:12;;;;;;;9.73;4.85;;;;;;;;;;5045345;28;20091;-51
2022/09/13 12:24:46;;;;;;;9.55;4.55;;;;;;;;;;5054790;28;20060;-50
2022/09/13 12:27:30;;;;;;;7.95;4.80;;;;;;;;;;5042318;28;20045;-51
2022/09/13 12:30:07;;;;;;;6.55;4.80;;;;;;;;;;5040350;28;20049;-54
2022/09/13 12:32:37;;;;;;;7.13;4.85;;;;;;;;;;5041168;28;20072;-53
2022/09/13 12:35:06;;;;;;;7.82;4.60;;;;;;;;;;5050998;28;20358;-54
2022/09/13 12:37:48;;;;;;;8.30;4.82;;;;;;;;;;5048774;28;20052;-51
2022/09/13 12:40:30;;;;;;;6.75;4.55;;;;;;;;;;5041449;28;20049;-53
2022/09/13 12:43:15;;;;;;;7.15;4.70;;;;;;;;;;5035348;28;20045;-51
2022/09/13 12:45:58;;;;;;;8.05;4.32;;;;;;;;;;5038007;28;20133;-51
2022/09/13 12:48:44;;;;;;;8.48;4.57;;;;;;;;;;5051875;28;20060;-50
2022/09/13 12:51:23;;;;;;;8.00;4.47;;;;;;;;;;5030116;28;20046;-50
2022/09/13 12:54:06;;;;;;;6.72;5.00;;;;;;;;;;5043424;28;20115;-52
2022/09/13 12:56:58;;;;;;;7.55;4.45;;;;;;;;;;5050731;28;20545;-51
2022/09/13 12:59:43;;;;;;;8.50;4.30;;;;;;;;;;5015228;28;20046;-51
2022/09/13 13:02:24;;;;;;;5.40;4.32;;;;;;;;;;5035518;28;20060;-52
2022/09/13 13:04:54;;;;;;;7.35;4.70;;;;;;;;;;5048904;28;20053;-51
2022/09/13 13:07:24;;;;;;;7.65;4.60;;;;;;;;;;5043680;28;20623;-53
2022/09/13 13:09:54;;;;;;;7.65;4.95;;;;;;;;;;5049733;28;20060;-50
2022/09/13 13:12:28;;;;;;;10.07;5.80;;;;;;;;;;5036364;28;20057;-54
2022/09/13 13:14:59;;;;;;;8.23;5.50;;;;;;;;;;5042165;28;20053;-53
2022/09/13 13:17:39;;;;;;;6.38;4.53;;;;;;;;;;5049527;28;20841;-52
2022/09/13 13:20:24;;;;;;;8.50;5.57;;;;;;;;;;5048282;28;20052;-54
2022/09/13 13:22:54;;;;;;;6.30;4.80;;;;;;;;;;5038238;28;20059;-51
2022/09/13 13:25:32;;;;;;;8.35;4.82;;;;;;;;;;5048073;28;20053;-53
2022/09/13 13:28:00;;;;;;;5.30;3.90;;;;;;;;;;5046973;28;20761;-52
2022/09/13 13:30:49;;;;;;;4.60;3.45;;;;;;;;;;5037883;28;20037;-51
2022/09/13 13:33:20;;;;;;;7.28;4.00;;;;;;;;;;5046837;28;20080;-57
2022/09/13 13:35:51;;;;;;;4.90;3.40;;;;;;;;;;5044093;28;20054;-55
2022/09/13 13:38:47;;;;;;;6.05;4.20;;;;;;;;;;5049684;28;20052;-53
2022/09/13 13:41:37;;;;;;;6.78;4.05;;;;;;;;;;5027085;28;20127;-52
2022/09/13 13:44:20;;;;;;;8.00;4.38;;;;;;;;;;5040224;28;20045;-52
2022/09/13 13:46:51;;;;;;;7.32;4.50;;;;;;;;;;5036984;28;20054;-52
2022/09/13 13:49:48;;;;;;;6.72;4.35;;;;;;;;;;5041629;28;20137;-55
2022/09/13 13:52:38;;;;;;;6.10;4.43;;;;;;;;;;5040917;28;20052;-55
2022/09/13 13:55:32;;;;;;;7.15;5.07;;;;;;;;;;5041639;28;20111;-51
2022/09/13 13:58:08;;;;;;;7.13;4.78;;;;;;;;;;5034521;28;20132;-49
2022/09/13 14:00:36;;;;;;;7.93;5.05;;;;;;;;;;5042637;28;20048;-52
2022/09/13 14:03:17;;;;;;;9.23;5.63;;;;;;;;;;5040826;28;20486;-51
2022/09/13 14:05:51;;;;;;;8.90;5.68;;;;;;;;;;5044088;28;20370;-52
2022/09/13 14:08:36;;;;;;;8.02;4.97;;;;;;;;;;5041732;28;20084;-51
2022/09/13 14:11:15;;;;;;;10.38;5.43;;;;;;;;;;5035089;28;20053;-54
2022/09/13 14:14:04;;;;;;;9.98;5.80;;;;;;;;;;5044220;28;20085;-50
2022/09/13 14:16:48;;;;;;;11.50;5.75;;;;;;;;;;5044772;28;20052;-52
2022/09/13 14:19:37;;;;;;;7.90;5.60;;;;;;;;;;5042162;28;20465;-51
2022/09/13 14:22:23;;;;;;;9.02;5.28;;;;;;;;;;5036508;28;20072;-51
2022/09/13 14:24:52;;;;;;;8.77;5.38;;;;;;;;;;5044626;28;20713;-53
2022/09/13 14:27:24;;;;;;;8.30;5.22;;;;;;;;;;5044438;28;20128;-56
2022/09/13 14:29:53;;;;;;;12.88;5.97;;;;;;;;;;5041100;28;20053;-56
2022/09/13 14:32:23;;;;;;;10.27;5.47;;;;;;;;;;5040395;28;20060;-54
2022/09/13 14:35:00;;;;;;;9.98;6.38;;;;;;;;;;5044283;28;20049;-55
2022/09/13 14:37:29;;;;;;;10.40;5.82;;;;;;;;;;5044351;28;20049;-49
2022/09/13 14:40:03;;;;;;;11.02;6.22;;;;;;;;;;5033108;28;20048;-51
2022/09/13 14:42:41;;;;;;;10.25;5.70;;;;;;;;;;5041024;28;20049;-50
2022/09/13 14:45:12;;;;;;;11.63;5.30;;;;;;;;;;5036001;28;20071;-51
2022/09/13 14:47:46;;;;;;;9.23;5.72;;;;;;;;;;5020947;28;20157;-52
2022/09/13 14:50:16;;;;;;;10.63;6.13;;;;;;;;;;5039600;28;20048;-50
2022/09/13 14:52:48;;;;;;;7.03;5.40;;;;;;;;;;5038878;28;20063;-51
2022/09/13 14:55:19;;;;;;;11.10;5.72;;;;;;;;;;5033092;28;20041;-50
2022/09/13 14:57:52;;;;;;;9.05;5.90;;;;;;;;;;5032741;28;20057;-50
2022/09/13 15:00:21;;;;;;;9.88;6.03;;;;;;;;;;5031301;28;20045;-49
2022/09/13 15:02:56;;;;;;;10.57;6.07;;;;;;;;;;5031005;28;20409;-49
2022/09/13 15:05:25;;;;;;;8.45;5.85;;;;;;;;;;5031179;28;20127;-50
2022/09/13 15:07:53;;;;;;;8.38;5.22;;;;;;;;;;5031516;28;20061;-52
2022/09/13 15:10:30;;;;;;;8.93;5.47;;;;;;;;;;5031399;28;20425;-50
2022/09/13 15:13:08;;;;;;;9.60;5.55;;;;;;;;;;5031318;28;20049;-50
2022/09/13 15:15:36;;;;;;;10.57;6.15;;;;;;;;;;5032171;28;20064;-51
2022/09/13 15:18:08;;;;;;;7.55;5.28;;;;;;;;;;5032433;28;20045;-51
2022/09/13 15:20:46;;;;;;;6.75;4.95;;;;;;;;;;5032288;28;20089;-51
2022/09/13 15:23:14;;;;;;;7.32;5.38;;;;;;;;;;5032164;28;20060;-49
2022/09/13 15:25:49;;;;;;;7.95;5.38;;;;;;;;;;5031999;28;20053;-50